Time;durP1;ratioP1;P1;durP2;ratioP2;P2;SDS_P1;SDS_P2;PMS_P1;PMS_P2;Temp;Humidity;BMP_temperature;BMP_pressure;BME280_temperature;BME280_humidity;BME280_pressure;Samples;Min_cycle;Max_cycle;Signal;HPM_P1;HPM_P2
2023/12/01 00:00:24;;;;;;;37.95;20.13;;;;;;;4.07;83.93;99599.69;3165047;28;20056;-75
2023/12/01 00:01:56;;;;;;;52.15;22.67;;;;;;;4.05;84.17;99604.03;3164897;28;20044;-75
2023/12/01 00:03:26;;;;;;;49.20;22.23;;;;;;;4.03;84.01;99605.81;3166281;28;20342;-74
2023/12/01 00:04:58;;;;;;;52.05;22.08;;;;;;;4.08;84.18;99609.97;3171026;28;20048;-75
2023/12/01 00:06:30;;;;;;;49.05;23.88;;;;;;;4.12;84.15;99615.06;3170911;28;20130;-74
2023/12/01 00:08:02;;;;;;;44.03;21.60;;;;;;;4.12;84.01;99621.06;3170781;28;20061;-76
2023/12/01 00:09:33;;;;;;;44.42;20.80;;;;;;;4.14;84.06;99623.59;3161887;28;20520;-76
2023/12/01 00:11:05;;;;;;;45.25;21.88;;;;;;;4.13;84.07;99622.75;3158633;28;20054;-68
2023/12/01 00:12:37;;;;;;;45.13;22.00;;;;;;;4.09;83.84;99611.66;3162064;28;20127;-75
2023/12/01 00:14:09;;;;;;;50.08;22.27;;;;;;;4.15;84.12;99610.69;3170760;28;20068;-75
2023/12/01 00:15:40;;;;;;;39.35;20.83;;;;;;;4.09;83.88;99609.09;3170580;28;20048;-74
2023/12/01 00:17:11;;;;;;;42.90;19.92;;;;;;;4.13;84.03;99616.75;3165963;28;20047;-75
2023/12/01 00:18:43;;;;;;;42.67;20.25;;;;;;;4.14;84.19;99614.16;3170944;28;20216;-74
2023/12/01 00:20:14;;;;;;;44.60;20.92;;;;;;;4.14;84.18;99616.75;3170962;28;20055;-74
2023/12/01 00:21:46;;;;;;;41.00;20.10;;;;;;;4.14;84.16;99614.16;3170899;28;20048;-75
2023/12/01 00:23:17;;;;;;;39.90;19.48;;;;;;;3.74;84.18;99553.16;3168002;28;20052;-75
2023/12/01 00:24:48;;;;;;;39.42;20.13;;;;;;;4.13;84.29;99615.03;3170893;28;20444;-74
2023/12/01 00:26:19;;;;;;;40.88;19.38;;;;;;;4.14;84.19;99608.13;3169855;28;20505;-74
2023/12/01 00:27:51;;;;;;;42.85;20.42;;;;;;;4.15;84.27;99615.84;3170498;28;20058;-74
2023/12/01 00:29:23;;;;;;;40.08;19.08;;;;;;;4.16;84.09;99617.53;3170324;28;20047;-74
2023/12/01 00:30:54;;;;;;;35.97;18.92;;;;;;;4.16;84.26;99621.84;3170703;28;20076;-75
2023/12/01 00:32:25;;;;;;;37.58;17.83;;;;;;;3.80;84.10;99565.91;3166388;28;20050;-75
2023/12/01 00:33:57;;;;;;;39.67;18.23;;;;;;;4.15;84.27;99617.56;3168446;28;20452;-75
2023/12/01 00:35:28;;;;;;;40.33;18.80;;;;;;;3.80;84.18;99560.75;3169417;28;20473;-76
2023/12/01 00:36:59;;;;;;;46.05;21.10;;;;;;;4.13;84.16;99609.88;3167505;28;20055;-78
2023/12/01 00:38:30;;;;;;;49.60;21.85;;;;;;;4.18;84.08;99615.78;3160248;28;20052;-77
2023/12/01 00:40:02;;;;;;;41.58;20.23;;;;;;;4.07;84.07;99592.81;3159619;28;20052;-75
2023/12/01 00:41:33;;;;;;;46.50;20.38;;;;;;;4.18;84.06;99614.94;3158948;28;20131;-76
2023/12/01 00:43:05;;;;;;;41.97;20.27;;;;;;;4.24;84.05;99630.25;3170446;28;20055;-72
2023/12/01 00:44:37;;;;;;;40.25;20.50;;;;;;;4.25;84.01;99632.78;3145420;28;20044;-73
2023/12/01 00:46:09;;;;;;;39.85;19.60;;;;;;;4.21;83.81;99620.88;3166625;28;20060;-73
2023/12/01 00:47:39;;;;;;;43.45;20.92;;;;;;;4.25;83.74;99622.47;3168359;28;20444;-72
2023/12/01 00:49:11;;;;;;;47.45;20.83;;;;;;;4.24;83.83;99620.78;3170052;28;20051;-72
2023/12/01 00:50:42;;;;;;;42.35;19.90;;;;;;;4.24;83.89;99625.94;3170543;28;20071;-71
2023/12/01 00:52:14;;;;;;;40.35;20.00;;;;;;;4.24;83.77;99623.38;3170489;28;20055;-72
2023/12/01 00:53:46;;;;;;;38.80;19.73;;;;;;;4.25;83.70;99637.09;3170315;28;20056;-72
2023/12/01 00:55:18;;;;;;;42.88;18.67;;;;;;;4.20;83.76;99624.34;3169245;28;20593;-72
2023/12/01 00:56:48;;;;;;;38.08;19.67;;;;;;;4.24;83.78;99630.25;3165020;28;20051;-73
2023/12/01 00:58:20;;;;;;;41.50;20.48;;;;;;;4.19;83.66;99627.78;3170254;28;20051;-72
2023/12/01 00:59:52;;;;;;;35.72;19.02;;;;;;;4.25;83.70;99630.22;3169034;28;20496;-72
2023/12/01 01:01:24;;;;;;;42.53;20.58;;;;;;;4.23;83.61;99633.69;3162169;28;20051;-72
2023/12/01 01:02:55;;;;;;;39.55;19.73;;;;;;;4.23;83.66;99626.84;3170659;28;20059;-72
2023/12/01 01:04:26;;;;;;;43.20;19.65;;;;;;;4.22;83.67;99624.28;3170070;28;20445;-73
2023/12/01 01:05:57;;;;;;;45.17;20.42;;;;;;;4.22;83.60;99622.53;3170263;28;20458;-73
2023/12/01 01:07:29;;;;;;;37.30;19.33;;;;;;;4.20;83.59;99629.50;3170195;28;20055;-72
2023/12/01 01:08:59;;;;;;;46.20;20.38;;;;;;;4.15;83.55;99621.00;3167437;28;20145;-73
2023/12/01 01:10:31;;;;;;;47.53;19.90;;;;;;;4.17;83.71;99626.09;3151320;28;20501;-74
2023/12/01 01:12:02;;;;;;;41.10;18.80;;;;;;;4.18;83.68;99625.25;3162286;28;20048;-74
2023/12/01 01:13:35;;;;;;;42.80;20.35;;;;;;;4.09;83.62;99610.81;3169267;28;20047;-75
2023/12/01 01:15:08;;;;;;;43.00;20.30;;;;;;;3.93;83.51;99584.53;3168726;28;20503;-73
2023/12/01 01:16:40;;;;;;;41.60;19.92;;;;;;;4.10;83.75;99615.94;3168230;28;20312;-74
2023/12/01 01:18:10;;;;;;;39.40;19.50;;;;;;;4.07;83.68;99610.00;3168475;28;20452;-74
2023/12/01 01:19:43;;;;;;;41.03;19.80;;;;;;;4.05;83.74;99609.19;3165128;28;20054;-74
2023/12/01 01:21:13;;;;;;;45.97;20.45;;;;;;;4.00;83.90;99598.16;3170446;28;20067;-74
2023/12/01 01:22:45;;;;;;;39.85;18.90;;;;;;;3.96;83.86;99589.59;3170093;28;20232;-74
2023/12/01 01:24:16;;;;;;;42.38;19.95;;;;;;;4.00;83.88;99595.56;3170224;28;20043;-74
2023/12/01 01:25:48;;;;;;;40.90;19.38;;;;;;;3.95;83.94;99595.66;3163448;28;20530;-74
2023/12/01 01:27:19;;;;;;;40.30;19.67;;;;;;;3.94;84.11;99593.13;3157455;28;20100;-74
2023/12/01 01:28:50;;;;;;;44.75;19.10;;;;;;;3.95;84.17;99594.81;3160663;28;20044;-74
2023/12/01 01:30:23;;;;;;;38.28;17.88;;;;;;;3.81;84.10;99575.31;3164371;28;20055;-74
2023/12/01 01:31:54;;;;;;;37.80;19.08;;;;;;;3.93;84.11;99586.25;3169592;28;20074;-74
2023/12/01 01:33:25;;;;;;;45.35;20.40;;;;;;;3.98;84.06;99597.31;3169909;28;20048;-74
2023/12/01 01:34:57;;;;;;;40.00;19.20;;;;;;;3.90;84.09;99574.28;3169401;28;20051;-74
2023/12/01 01:36:27;;;;;;;39.30;19.42;;;;;;;3.82;83.95;99551.28;3170351;28;20054;-74
2023/12/01 01:37:59;;;;;;;37.08;18.95;;;;;;;3.97;83.86;99577.59;3158170;28;20060;-74
2023/12/01 01:39:30;;;;;;;38.45;19.10;;;;;;;3.96;83.91;99573.31;3162323;28;20524;-74
2023/12/01 01:41:02;;;;;;;38.70;18.90;;;;;;;3.94;83.94;99583.66;3158233;28;20054;-75
2023/12/01 01:42:33;;;;;;;36.05;19.08;;;;;;;3.94;83.98;99581.09;3166486;28;20508;-74
2023/12/01 01:44:05;;;;;;;45.42;20.85;;;;;;;3.91;84.02;99580.31;3169698;27;20055;-74
2023/12/01 01:45:38;;;;;;;41.50;19.58;;;;;;;3.90;84.05;99578.59;3160676;28;20146;-74
2023/12/01 01:47:09;;;;;;;39.42;19.73;;;;;;;3.87;84.11;99567.50;3169593;28;20512;-74
2023/12/01 01:48:42;;;;;;;44.88;20.27;;;;;;;3.88;84.30;99565.75;3169400;28;20230;-74
2023/12/01 01:50:13;;;;;;;44.97;19.40;;;;;;;3.87;84.16;99564.94;3169763;28;20101;-74
2023/12/01 01:51:46;;;;;;;43.22;19.45;;;;;;;3.90;84.16;99569.13;3169542;28;20176;-74
2023/12/01 01:53:17;;;;;;;43.22;19.98;;;;;;;3.89;84.23;99564.88;3160128;28;20048;-74
2023/12/01 01:54:49;;;;;;;47.75;20.42;;;;;;;3.89;84.16;99570.03;3160717;28;20044;-73
2023/12/01 01:56:20;;;;;;;42.92;19.65;;;;;;;3.91;84.13;99564.84;3162206;28;20066;-74
2023/12/01 01:57:55;;;;;;;40.85;20.00;;;;;;;3.82;84.12;99546.13;3169683;28;20051;-74
2023/12/01 01:59:26;;;;;;;41.28;19.88;;;;;;;3.92;84.08;99567.38;3165042;28;20066;-73
2023/12/01 02:00:59;;;;;;;43.35;20.60;;;;;;;3.92;83.92;99558.81;3164167;28;20138;-74
2023/12/01 02:02:32;;;;;;;41.05;19.40;;;;;;;3.95;84.01;99561.31;3169873;28;20568;-74
2023/12/01 02:04:04;;;;;;;38.25;20.27;;;;;;;3.94;83.80;99562.22;3161921;28;20055;-76
2023/12/01 02:05:34;;;;;;;40.85;20.25;;;;;;;3.96;83.94;99550.13;3169352;28;20127;-75
2023/12/01 02:07:08;;;;;;;44.42;20.00;;;;;;;3.93;83.76;99545.88;3169976;28;20185;-73
2023/12/01 02:08:39;;;;;;;;;;;;;;;3.86;83.78;99552.06;3169750;28;20055;-70
2023/12/01 02:10:15;;;;;;;39.97;18.58;;;;;;;3.84;83.95;99541.78;3151216;28;19938;-72
2023/12/01 02:11:46;;;;;;;42.47;20.00;;;;;;;3.91;83.88;99557.13;3161748;28;20109;-72
2023/12/01 02:13:17;;;;;;;40.22;19.67;;;;;;;3.87;83.80;99549.47;3165569;28;20104;-70
2023/12/01 02:14:48;;;;;;;38.80;19.63;;;;;;;3.94;83.64;99559.63;3164833;28;20056;-72
2023/12/01 02:16:21;;;;;;;35.03;18.35;;;;;;;3.96;83.62;99568.16;3164420;28;20050;-72
2023/12/01 02:17:52;;;;;;;42.20;19.00;;;;;;;3.96;83.63;99563.00;3169179;28;20051;-69
2023/12/01 02:19:24;;;;;;;36.58;19.00;;;;;;;3.94;83.55;99552.75;3169636;28;20048;-69
2023/12/01 02:20:56;;;;;;;41.88;19.00;;;;;;;3.97;83.62;99555.25;3169486;27;20079;-70
2023/12/01 02:22:29;;;;;;;41.25;18.45;;;;;;;3.95;83.50;99545.84;3168911;28;20058;-68
2023/12/01 02:23:59;;;;;;;40.97;18.95;;;;;;;3.96;83.54;99556.13;3166371;28;20483;-68
2023/12/01 02:25:31;;;;;;;42.45;19.70;;;;;;;3.96;83.38;99569.00;3165733;28;20193;-68
2023/12/01 02:27:02;;;;;;;40.85;19.05;;;;;;;3.96;83.43;99566.41;3167866;28;20093;-74
2023/12/01 02:28:34;;;;;;;42.15;19.15;;;;;;;3.96;83.35;99563.00;3163679;28;20055;-73
2023/12/01 02:30:06;;;;;;;36.60;19.55;;;;;;;3.94;83.27;99557.06;3161581;28;20044;-73
2023/12/01 02:31:38;;;;;;;36.08;18.80;;;;;;;3.93;83.38;99557.91;3165200;28;20048;-73
2023/12/01 02:33:13;;;;;;;36.28;18.60;;;;;;;3.98;83.39;99561.25;3169375;28;20055;-76
2023/12/01 02:34:45;;;;;;;37.00;18.23;;;;;;;3.98;83.37;99558.66;3169991;28;20447;-77
2023/12/01 02:36:17;;;;;;;36.53;18.35;;;;;;;3.97;83.35;99550.09;3164603;28;20504;-76
2023/12/01 02:37:50;;;;;;;40.00;19.15;;;;;;;3.92;83.38;99549.34;3165599;28;20358;-75
2023/12/01 02:39:21;;;;;;;48.08;19.33;;;;;;;3.94;83.44;99549.34;3164365;28;20073;-76
2023/12/01 02:40:53;;;;;;;36.08;18.98;;;;;;;3.93;83.45;99545.88;3157419;28;20058;-76
2023/12/01 02:42:23;;;;;;;40.28;18.52;;;;;;;3.91;83.57;99544.25;3163026;28;20040;-75
2023/12/01 02:43:55;;;;;;;36.65;19.40;;;;;;;3.91;83.53;99544.25;3164863;28;20546;-76
2023/12/01 02:45:28;;;;;;;43.08;19.45;;;;;;;3.88;83.52;99548.56;3169415;28;20078;-76
2023/12/01 02:46:59;;;;;;;39.55;18.65;;;;;;;3.80;83.73;99541.91;3169587;28;20560;-75
2023/12/01 02:48:30;;;;;;;33.92;16.83;;;;;;;3.91;83.61;99549.41;3162991;28;20055;-75
2023/12/01 02:50:02;;;;;;;39.58;17.52;;;;;;;3.90;83.63;99542.53;3169606;28;20148;-76
2023/12/01 02:51:34;;;;;;;35.03;18.02;;;;;;;3.93;83.76;99537.31;3144284;28;20056;-75
2023/12/01 02:53:06;;;;;;;40.45;18.35;;;;;;;3.95;83.61;99548.44;3168533;28;20529;-76
2023/12/01 02:54:38;;;;;;;37.92;18.67;;;;;;;3.93;83.54;99547.63;3169031;28;20440;-72
2023/12/01 02:56:11;;;;;;;36.70;18.42;;;;;;;3.94;83.62;99545.03;3161776;28;20047;-76
2023/12/01 02:57:41;;;;;;;34.07;17.40;;;;;;;3.82;83.59;99538.41;3168529;28;20071;-75
2023/12/01 02:59:13;;;;;;;37.80;18.02;;;;;;;3.86;83.60;99541.75;3164477;28;20068;-75
2023/12/01 03:00:44;;;;;;;38.35;18.77;;;;;;;3.85;83.63;99546.06;3159024;28;20048;-75
2023/12/01 03:02:16;;;;;;;36.13;18.05;;;;;;;3.85;83.66;99547.81;3159413;28;20055;-75
2023/12/01 03:03:48;;;;;;;37.65;18.98;;;;;;;3.83;83.58;99540.09;3169479;28;20054;-75
2023/12/01 03:05:19;;;;;;;32.22;16.00;;;;;;;3.76;83.62;99535.97;3169174;28;20048;-75
2023/12/01 03:06:51;;;;;;;36.83;17.60;;;;;;;3.81;83.83;99551.31;3169149;28;20075;-72
2023/12/01 03:08:23;;;;;;;37.78;17.05;;;;;;;3.77;83.84;99544.53;3169169;28;20047;-73
2023/12/01 03:09:55;;;;;;;34.25;17.42;;;;;;;3.79;83.75;99548.78;3157645;28;20047;-73
2023/12/01 03:11:27;;;;;;;34.83;17.35;;;;;;;3.78;83.75;99543.66;3158232;28;20175;-73
2023/12/01 03:12:57;;;;;;;30.08;15.70;;;;;;;3.75;83.80;99538.56;3161787;28;20130;-73
2023/12/01 03:14:29;;;;;;;38.40;17.10;;;;;;;3.80;83.83;99549.63;3171600;28;20062;-74
2023/12/01 03:16:01;;;;;;;32.97;16.63;;;;;;;3.74;83.71;99545.44;3171830;28;20039;-74
2023/12/01 03:17:32;;;;;;;32.13;15.65;;;;;;;3.75;83.70;99557.44;3171486;28;20056;-73
2023/12/01 03:19:08;;;;;;;29.98;15.20;;;;;;;3.72;83.73;99560.06;3171396;28;20501;-73
2023/12/01 03:20:40;;;;;;;32.65;16.45;;;;;;;3.67;83.80;99549.03;3171751;28;20147;-73
2023/12/01 03:22:11;;;;;;;33.00;16.50;;;;;;;3.69;83.97;99551.56;3170180;28;20067;-73
2023/12/01 03:23:44;;;;;;;34.22;16.92;;;;;;;3.69;83.88;99549.84;3171531;28;20048;-73
2023/12/01 03:25:14;;;;;;;34.83;16.13;;;;;;;3.68;83.91;99553.31;3170818;28;20112;-73
2023/12/01 03:26:46;;;;;;;33.67;16.85;;;;;;;3.67;83.79;99551.63;3163486;28;20527;-73
2023/12/01 03:28:17;;;;;;;38.55;16.80;;;;;;;3.64;83.75;99549.94;3170674;28;20059;-74
2023/12/01 03:29:49;;;;;;;33.95;16.77;;;;;;;3.61;83.88;99542.28;3171304;28;20172;-74
2023/12/01 03:31:19;;;;;;;34.70;17.45;;;;;;;3.65;83.71;99543.06;3164987;28;20055;-74
2023/12/01 03:32:52;;;;;;;34.20;15.70;;;;;;;3.63;83.95;99547.38;3168245;28;20048;-71
2023/12/01 03:34:23;;;;;;;39.42;16.52;;;;;;;3.55;83.89;99552.72;3171302;28;20516;-72
2023/12/01 03:35:55;;;;;;;36.20;16.10;;;;;;;3.55;84.07;99546.69;3170453;28;20127;-72
2023/12/01 03:37:25;;;;;;;33.72;16.58;;;;;;;3.60;84.01;99550.03;3164226;28;20134;-72
2023/12/01 03:38:58;;;;;;;35.40;17.13;;;;;;;3.62;83.84;99550.84;3165191;28;20475;-74
2023/12/01 03:40:29;;;;;;;32.85;16.33;;;;;;;3.56;84.04;99541.53;3157322;27;20056;-74
2023/12/01 03:42:01;;;;;;;30.70;16.27;;;;;;;3.59;84.00;99538.91;3163550;28;20050;-74
2023/12/01 03:43:33;;;;;;;33.55;15.40;;;;;;;3.59;83.97;99527.75;3171161;28;20074;-74
2023/12/01 03:45:07;;;;;;;29.02;15.52;;;;;;;3.59;83.97;99527.75;3171410;28;20641;-69
2023/12/01 03:46:38;;;;;;;28.65;15.35;;;;;;;3.57;84.04;99532.06;3171392;28;20416;-71
2023/12/01 03:48:09;;;;;;;34.95;16.35;;;;;;;3.56;83.97;99535.53;3171171;28;20059;-72
2023/12/01 03:49:40;;;;;;;29.38;16.25;;;;;;;3.56;83.94;99538.97;3171076;28;20146;-72
2023/12/01 03:51:12;;;;;;;34.97;17.45;;;;;;;3.57;83.95;99540.63;3171299;28;20444;-69
2023/12/01 03:52:45;;;;;;;33.05;16.35;;;;;;;3.58;84.04;99539.78;3171266;28;20069;-71
2023/12/01 03:54:18;;;;;;;30.83;14.85;;;;;;;3.52;83.94;99526.16;3161825;28;20041;-71
2023/12/01 03:55:49;;;;;;;30.45;15.05;;;;;;;3.54;84.07;99534.72;3165219;28;20070;-73
2023/12/01 03:57:21;;;;;;;31.10;16.48;;;;;;;3.53;83.96;99538.19;3169919;28;20051;-73
2023/12/01 03:58:55;;;;;;;36.38;16.52;;;;;;;3.53;83.97;99541.59;3171416;28;20304;-73
2023/12/01 04:00:32;;;;;;;38.38;18.98;;;;;;;3.50;84.02;99515.06;3168309;28;20430;-75
2023/12/01 04:02:04;;;;;;;34.03;16.50;;;;;;;3.54;84.09;99524.41;3152972;28;20133;-73
2023/12/01 04:03:35;;;;;;;32.28;16.05;;;;;;;3.54;84.12;99529.56;3164871;28;20404;-72
2023/12/01 04:05:08;;;;;;;33.30;15.10;;;;;;;3.55;84.07;99534.69;3171087;28;20051;-72
2023/12/01 04:06:42;;;;;;;33.08;15.48;;;;;;;3.52;84.01;99528.75;3171018;27;20055;-71
2023/12/01 04:08:13;;;;;;;28.88;14.63;;;;;;;3.48;84.17;99524.53;3166000;28;20082;-72
2023/12/01 04:09:46;;;;;;;31.90;15.88;;;;;;;3.50;84.13;99525.38;3159535;28;20066;-73
2023/12/01 04:11:17;;;;;;;31.55;15.13;;;;;;;3.52;84.08;99533.88;3161737;28;20084;-73
2023/12/01 04:12:48;;;;;;;30.10;15.32;;;;;;;3.53;84.15;99520.16;3163700;28;20047;-74
2023/12/01 04:14:19;;;;;;;31.40;14.95;;;;;;;3.53;84.11;99513.28;3171087;28;20068;-73
2023/12/01 04:15:51;;;;;;;28.73;15.10;;;;;;;3.54;84.03;99522.69;3170656;28;20051;-72
2023/12/01 04:17:22;;;;;;;29.33;15.40;;;;;;;3.58;84.03;99528.59;3170487;28;20047;-72
2023/12/01 04:18:54;;;;;;;34.72;16.50;;;;;;;3.58;83.92;99516.59;3165236;28;20059;-72
2023/12/01 04:20:25;;;;;;;28.00;15.35;;;;;;;3.59;83.91;99520.88;3170691;28;20536;-70
2023/12/01 04:21:57;;;;;;;34.35;18.73;;;;;;;3.60;83.92;99525.13;3145772;28;20048;-72
2023/12/01 04:23:29;;;;;;;31.73;17.63;;;;;;;3.59;83.87;99520.88;3157802;28;20048;-72
2023/12/01 04:25:01;;;;;;;30.85;16.67;;;;;;;3.63;83.83;99522.47;3165658;28;20130;-72
2023/12/01 04:26:33;;;;;;;29.98;15.38;;;;;;;3.64;83.79;99525.94;3164427;28;20121;-72
2023/12/01 04:28:05;;;;;;;29.85;15.35;;;;;;;3.55;83.80;99508.94;3167895;28;20051;-73
2023/12/01 04:29:38;;;;;;;30.70;15.23;;;;;;;3.60;83.85;99504.53;3170129;28;20066;-73
2023/12/01 04:31:10;;;;;;;29.67;15.85;;;;;;;3.60;83.84;99508.84;3170724;28;20139;-73
2023/12/01 04:32:41;;;;;;;32.95;14.93;;;;;;;3.60;83.68;99511.41;3170816;28;20524;-73
2023/12/01 04:34:13;;;;;;;28.15;14.70;;;;;;;3.63;83.85;99509.59;3170544;28;20056;-73
2023/12/01 04:35:43;;;;;;;32.00;15.38;;;;;;;3.52;83.86;99484.97;3169029;28;20047;-73
2023/12/01 04:37:15;;;;;;;30.98;16.38;;;;;;;3.53;83.93;99489.25;3169821;28;20048;-72
2023/12/01 04:38:47;;;;;;;31.48;16.33;;;;;;;3.67;83.98;99514.69;3170317;28;20062;-72
2023/12/01 04:40:19;;;;;;;30.05;16.05;;;;;;;3.68;83.92;99516.41;3159965;28;20051;-72
2023/12/01 04:41:51;;;;;;;34.90;17.40;;;;;;;3.69;83.79;99507.78;3160817;28;20055;-72
2023/12/01 04:43:23;;;;;;;34.38;18.73;;;;;;;2.99;83.87;99390.03;3170641;27;21481;-72
2023/12/01 04:44:54;;;;;;;31.40;17.10;;;;;;;3.72;83.79;99512.88;3171139;28;20056;-73
2023/12/01 04:46:25;;;;;;;35.92;17.60;;;;;;;3.72;83.67;99518.03;3170680;28;20411;-73
2023/12/01 04:47:57;;;;;;;31.42;18.55;;;;;;;3.72;83.72;99521.44;3170633;28;20047;-74
2023/12/01 04:49:28;;;;;;;35.08;18.13;;;;;;;3.74;83.71;99514.53;3169845;28;20055;-71
2023/12/01 04:50:59;;;;;;;34.97;16.45;;;;;;;3.75;83.62;99517.97;3158898;28;20406;-71
2023/12/01 04:52:31;;;;;;;36.95;18.15;;;;;;;3.74;83.57;99509.38;3170003;28;20047;-72
2023/12/01 04:54:04;;;;;;;33.50;16.35;;;;;;;3.74;83.62;99509.38;3169853;28;20055;-71
2023/12/01 04:55:36;;;;;;;34.42;15.73;;;;;;;3.61;83.65;99506.25;3164271;28;20055;-70
2023/12/01 04:57:08;;;;;;;32.00;16.80;;;;;;;3.74;83.66;99526.56;3160989;28;20044;-75
2023/12/01 04:58:40;;;;;;;37.67;16.48;;;;;;;3.74;83.65;99521.44;3171459;27;20504;-74
2023/12/01 05:00:22;;;;;;;31.70;15.00;;;;;;;3.71;83.72;99513.75;3165903;28;20052;-74
2023/12/01 05:01:53;;;;;;;30.27;15.45;;;;;;;3.73;83.78;99514.59;3149134;28;20526;-68
2023/12/01 05:03:24;;;;;;;29.17;15.45;;;;;;;3.73;83.71;99509.44;3166174;28;20093;-69
2023/12/01 05:04:56;;;;;;;27.00;15.07;;;;;;;3.75;83.73;99520.53;3164002;28;20105;-67
2023/12/01 05:06:28;;;;;;;27.98;14.70;;;;;;;3.76;83.68;99541.13;3165254;28;20587;-68
2023/12/01 05:08:00;;;;;;;27.77;13.52;;;;;;;3.77;83.68;99536.81;3164853;28;20059;-70
2023/12/01 05:09:32;;;;;;;29.27;14.27;;;;;;;3.74;83.70;99540.28;3156959;28;20604;-73
2023/12/01 05:11:05;;;;;;;27.35;14.25;;;;;;;3.75;83.62;99533.41;3163615;28;20047;-72
2023/12/01 05:12:37;;;;;;;29.17;14.60;;;;;;;3.73;83.71;99525.72;3161160;28;20397;-70
2023/12/01 05:14:10;;;;;;;34.58;16.85;;;;;;;3.73;83.80;99530.88;3169769;27;20051;-74
2023/12/01 05:15:41;;;;;;;77.07;32.72;;;;;;;3.67;83.54;99522.41;3168932;28;20595;-72
2023/12/01 05:17:13;;;;;;;89.78;41.75;;;;;;;3.75;83.69;99536.81;3170094;28;20062;-68
2023/12/01 05:18:45;;;;;;;59.75;29.15;;;;;;;3.77;83.60;99532.50;3157932;28;20052;-75
2023/12/01 05:20:17;;;;;;;38.75;20.75;;;;;;;3.78;83.48;99526.47;3157245;28;20052;-72
2023/12/01 05:21:49;;;;;;;27.65;14.60;;;;;;;3.75;83.52;99530.84;3169658;28;20054;-69
2023/12/01 05:23:20;;;;;;;27.10;14.80;;;;;;;3.76;83.38;99535.97;3170028;28;20165;-70
2023/12/01 05:24:52;;;;;;;29.67;16.30;;;;;;;3.71;83.52;99527.47;3161158;28;20509;-72
2023/12/01 05:26:25;;;;;;;168.02;73.68;;;;;;;3.77;83.59;99529.09;3157207;28;20056;-73
2023/12/01 05:27:56;;;;;;;;;;;;;;;3.67;83.81;99527.56;3166594;28;20482;-69
2023/12/01 05:29:28;;;;;;;150.25;63.33;;;;;;;3.73;83.85;99523.16;3169770;28;19923;-77
2023/12/01 05:31:00;;;;;;;72.97;36.47;;;;;;;3.79;83.67;99533.31;3169721;28;20054;-69
2023/12/01 05:32:30;;;;;;;43.97;19.95;;;;;;;3.82;83.62;99529.84;3169519;28;20480;-72
2023/12/01 05:34:05;;;;;;;27.83;14.82;;;;;;;3.59;83.48;99487.41;3169233;28;20059;-71
2023/12/01 05:35:38;;;;;;;31.08;13.70;;;;;;;3.81;83.37;99523.81;3168452;28;20050;-71
2023/12/01 05:37:12;;;;;;;27.73;13.98;;;;;;;3.78;83.43;99523.88;3169383;28;20114;-72
2023/12/01 05:38:44;;;;;;;26.95;12.68;;;;;;;3.75;83.54;99526.53;3169764;28;20098;-71
2023/12/01 05:40:16;;;;;;;23.70;12.75;;;;;;;3.59;83.32;99504.56;3160190;28;20123;-71
2023/12/01 05:41:50;;;;;;;26.73;13.55;;;;;;;3.70;83.48;99528.38;3159588;28;20104;-68
2023/12/01 05:43:20;;;;;;;25.88;12.63;;;;;;;3.65;83.49;99519.91;3169505;28;20044;-68
2023/12/01 05:44:52;;;;;;;25.63;13.45;;;;;;;3.62;83.67;99512.25;3169477;27;20063;-68
2023/12/01 05:46:24;;;;;;;28.08;13.55;;;;;;;3.62;83.76;99523.38;3170036;28;20111;-70
2023/12/01 05:47:56;;;;;;;23.88;13.52;;;;;;;3.60;83.68;99525.13;3169920;28;20075;-72
2023/12/01 05:49:28;;;;;;;24.02;12.82;;;;;;;3.59;83.72;99513.16;3169380;28;20052;-71
2023/12/01 05:50:58;;;;;;;23.95;12.38;;;;;;;3.59;83.81;99514.88;3170278;28;20142;-67
2023/12/01 05:52:30;;;;;;;23.88;12.25;;;;;;;3.59;83.69;99510.56;3169758;28;20051;-65
2023/12/01 05:54:01;;;;;;;25.40;12.10;;;;;;;3.59;83.65;99502.84;3169080;28;20051;-66
2023/12/01 05:55:35;;;;;;;27.42;12.82;;;;;;;3.61;83.69;99507.97;3165941;28;20131;-61
2023/12/01 05:57:08;;;;;;;25.05;12.20;;;;;;;3.61;83.58;99495.94;3159405;28;20043;-62
2023/12/01 05:58:40;;;;;;;24.13;12.70;;;;;;;3.62;83.58;99504.50;3159963;28;20140;-62
2023/12/01 06:00:12;;;;;;;21.50;12.10;;;;;;;3.62;83.49;99495.06;3159615;27;20061;-65
2023/12/01 06:01:45;;;;;;;23.17;12.07;;;;;;;3.62;83.47;99496.78;3150344;28;20079;-67
2023/12/01 06:03:19;;;;;;;19.75;10.98;;;;;;;3.60;83.48;99493.38;3159900;28;20485;-66
2023/12/01 06:04:50;;;;;;;22.77;11.80;;;;;;;3.56;83.56;99496.91;3166488;28;20233;-65
2023/12/01 06:06:21;;;;;;;20.65;12.27;;;;;;;3.55;83.58;99492.63;3169584;28;20064;-66
2023/12/01 06:07:54;;;;;;;25.15;11.43;;;;;;;3.57;83.61;99488.31;3169146;28;20480;-66
2023/12/01 06:09:26;;;;;;;27.15;12.65;;;;;;;3.57;83.38;99484.00;3162247;28;20135;-66
2023/12/01 06:10:57;;;;;;;20.50;11.48;;;;;;;3.59;83.38;99486.56;3152316;28;20070;-66
2023/12/01 06:12:30;;;;;;;26.88;12.93;;;;;;;3.62;83.45;99482.19;3159288;28;20052;-68
2023/12/01 06:14:02;;;;;;;20.48;11.73;;;;;;;3.62;83.38;99484.75;3162284;28;20044;-67
2023/12/01 06:15:34;;;;;;;24.75;12.20;;;;;;;3.65;83.46;99479.53;3161526;28;20044;-66
2023/12/01 06:17:07;;;;;;;32.05;14.77;;;;;;;3.66;83.41;99477.81;3169771;28;20134;-65
2023/12/01 06:18:39;;;;;;;30.40;15.50;;;;;;;3.62;83.30;99477.03;3168228;28;20044;-66
2023/12/01 06:20:17;;;;;;;25.30;13.57;;;;;;;3.69;83.35;99484.63;3168903;28;20378;-66
2023/12/01 06:21:48;;;;;;;29.50;13.60;;;;;;;3.57;83.31;99478.00;3158122;28;20113;-64
2023/12/01 06:23:19;;;;;;;28.92;14.38;;;;;;;3.64;83.40;99492.47;3159373;28;20047;-65
2023/12/01 06:24:54;;;;;;;27.50;14.40;;;;;;;3.65;83.51;99489.84;3159482;28;20055;-66
2023/12/01 06:26:25;;;;;;;28.65;14.95;;;;;;;3.65;83.35;99496.72;3160606;28;20055;-65
2023/12/01 06:28:00;;;;;;;30.08;15.05;;;;;;;3.65;83.40;99489.00;3169410;28;20568;-65
2023/12/01 06:29:31;;;;;;;31.20;16.02;;;;;;;3.63;83.59;99493.31;3169094;28;20059;-65
2023/12/01 06:31:02;;;;;;;30.02;16.02;;;;;;;3.59;83.59;99487.41;3169302;28;20058;-65
2023/12/01 06:32:33;;;;;;;32.40;15.98;;;;;;;3.59;83.63;99481.41;3169587;28;20485;-64
2023/12/01 06:34:05;;;;;;;30.08;15.38;;;;;;;3.62;83.69;99494.22;3169023;28;20137;-65
2023/12/01 06:35:38;;;;;;;31.42;16.33;;;;;;;3.23;83.43;99434.97;3162983;28;20101;-65
2023/12/01 06:37:09;;;;;;;32.92;16.42;;;;;;;3.65;83.55;99486.41;3161361;28;20626;-64
2023/12/01 06:38:40;;;;;;;30.92;15.73;;;;;;;3.66;83.42;99482.94;3164570;28;20126;-65
2023/12/01 06:40:13;;;;;;;32.88;15.68;;;;;;;3.67;83.32;99483.78;3153331;28;20438;-64
2023/12/01 06:41:46;;;;;;;31.52;15.93;;;;;;;3.60;83.33;99483.09;3158733;28;20135;-65
2023/12/01 06:43:18;;;;;;;34.35;16.30;;;;;;;3.63;83.37;99495.91;3162373;28;20427;-64
2023/12/01 06:44:50;;;;;;;32.67;16.52;;;;;;;3.54;83.44;99494.38;3169309;28;20051;-65
2023/12/01 06:46:20;;;;;;;36.75;18.23;;;;;;;3.65;83.34;99500.13;3171136;28;20044;-65
2023/12/01 06:47:54;;;;;;;36.20;18.65;;;;;;;3.71;83.25;99512.03;3171548;28;20051;-68
2023/12/01 06:49:24;;;;;;;38.92;17.48;;;;;;;3.71;83.38;99511.19;3171743;28;20462;-67
2023/12/01 06:50:56;;;;;;;35.03;18.05;;;;;;;3.74;83.29;99513.69;3172168;28;20058;-67
2023/12/01 06:52:27;;;;;;;42.78;20.13;;;;;;;3.78;83.23;99517.88;3167361;28;20433;-66
2023/12/01 06:53:59;;;;;;;39.00;19.95;;;;;;;3.79;83.14;99514.44;3171947;27;20048;-62
2023/12/01 06:55:31;;;;;;;37.15;17.45;;;;;;;3.83;83.32;99521.22;3168705;28;20802;-64
2023/12/01 06:57:02;;;;;;;39.42;17.50;;;;;;;3.81;83.22;99518.66;3160894;28;20054;-63
2023/12/01 06:58:35;;;;;;;38.05;16.77;;;;;;;3.92;83.04;99512.44;3160620;28;20052;-62
2023/12/01 07:00:09;;;;;;;33.63;16.98;;;;;;;3.53;82.99;99438.63;3163858;28;20055;-63
2023/12/01 07:01:40;;;;;;;36.78;17.23;;;;;;;3.96;82.90;99514.06;3150529;28;20374;-63
2023/12/01 07:03:12;;;;;;;32.58;16.45;;;;;;;3.98;82.98;99508.00;3171705;28;20052;-62
2023/12/01 07:04:43;;;;;;;30.58;15.70;;;;;;;3.99;82.95;99522.56;3171265;28;20453;-66
2023/12/01 07:06:15;;;;;;;31.70;15.98;;;;;;;3.98;82.86;99532.91;3171587;28;20048;-67
2023/12/01 07:07:47;;;;;;;32.22;15.43;;;;;;;3.99;82.94;99537.16;3162357;28;20050;-64